Current Weather



TAF Data Links

METAR Data Links

Latest METAR/TAF Data


Available data for KAUS from the past 2 hours
AUSTIN, TX
Metar
KAUS 241953Z 19012G21KT 8SM FEW014 SCT025 OVC120 23/21 A2983 RMK AO2 SLP095 T02280206

19:53 UTC

Wind: 190° 12kt

Visibility: 8 SM

Sky: FEW 1400 ft

Temp: 23 deg C / 73.4 deg F

Dewpoint: 21 deg C / 69.8 deg F

Pressure: 29.83 inHg

TAF
KAUS 241859Z 2419/2524 20016KT P6SM VCSH BKN035 FM242200 28010KT P6SM BKN200 FM251300 02008KT P6SM VCSH BKN015
Pirep (1)
AUS UA /OV 40 EAST OF AUS/TM 1840/FL120/TP B737/TB LIGHT OCCASIONALLY MODERATE TURBULENCE 120-050


Available data for KEDC from the past 2 hours
AUSTIN EXEC, TX
Pirep (1)
AUS UA /OV 40 EAST OF AUS/TM 1840/FL120/TP B737/TB LIGHT OCCASIONALLY MODERATE TURBULENCE 120-050


Available data for KRYW from the past 2 hours
LAGO VISTA, TX
Metar
KRYW 242015Z AUTO 19006KT 10SM SCT018 SCT025 SCT033 24/19 A2985 RMK AO2 T02350193

20:15 UTC

Wind: 190° 6kt

Visibility: 10 SM

Sky: SCT 1800 ft

Temp: 24 deg C / 75.2 deg F

Dewpoint: 19 deg C / 66.2 deg F

Pressure: 29.85 inHg

Pireps (2)
GRK UA /OV LLO130030/TM 1957/FL220/TP TBM7/TA M13/IC MOD RIME/RM FM KZHU AWC-WEB/
AUS UA /OV 40 EAST OF AUS/TM 1840/FL120/TP B737/TB LIGHT OCCASIONALLY MODERATE TURBULENCE 120-050